DYE318 LBBG-EPPO
Flight info
| Callsign | DYE318 |
|---|---|
| Flight time | 2h 0m |
| Altitude | 36000 |
| Route | BUVAK3V/22 BUVAK T777 BALIK L619 ARGES DCT KARIL DCT KENIN DCT LENOV L619 NUDRO/N0450F280 L619 ARMEX DCT NILPU |
| Aircraft | B738/M-SDE2E3FGHIRWXY/LB1 |
Departure
| Time | 2026-05-08 07:08 |
|---|---|
| Airport | Burgas Airport (LBBG) |
Arrival
| Time | 2026-05-08 09:09 |
|---|---|
| Airport | Poznań-Ławica Airport (EPPO) |
| Time | Latitude | Longitude | Altitude | Speed | Heading |
|---|---|---|---|---|---|
| 2026-05-08 06:19 | 42.56690 | 27.51472 | 110 ft | 0 kts | 345° |
| 2026-05-08 07:01 | 42.56665 | 27.51479 | 108 ft | 11 kts | 354° |
| 2026-05-08 07:01 | 42.56626 | 27.51468 | 108 ft | 0 kts | 40° |
| 2026-05-08 07:01 | 42.56628 | 27.51470 | 109 ft | 0 kts | 41° |
| 2026-05-08 07:02 | 42.56630 | 27.51473 | 109 ft | 0 kts | 41° |
| 2026-05-08 07:02 | 42.56631 | 27.51475 | 109 ft | 0 kts | 41° |
| 2026-05-08 07:02 | 42.56632 | 27.51476 | 109 ft | 0 kts | 43° |
| 2026-05-08 07:02 | 42.56640 | 27.51495 | 108 ft | 7 kts | 59° |
| 2026-05-08 07:03 | 42.56678 | 27.51573 | 110 ft | 13 kts | 51° |
| 2026-05-08 07:03 | 42.56743 | 27.51674 | 112 ft | 15 kts | 50° |
| 2026-05-08 07:03 | 42.56807 | 27.51777 | 113 ft | 14 kts | 50° |
| 2026-05-08 07:03 | 42.56874 | 27.51868 | 113 ft | 13 kts | 41° |
| 2026-05-08 07:04 | 42.56942 | 27.51951 | 114 ft | 13 kts | 44° |
| 2026-05-08 07:04 | 42.57011 | 27.52026 | 114 ft | 13 kts | 37° |
| 2026-05-08 07:04 | 42.57077 | 27.52101 | 116 ft | 12 kts | 41° |
| 2026-05-08 07:04 | 42.57142 | 27.52178 | 114 ft | 13 kts | 39° |
| 2026-05-08 07:05 | 42.57219 | 27.52263 | 118 ft | 15 kts | 42° |
| 2026-05-08 07:05 | 42.57303 | 27.52360 | 120 ft | 17 kts | 39° |
| 2026-05-08 07:05 | 42.57390 | 27.52458 | 120 ft | 16 kts | 41° |
| 2026-05-08 07:05 | 42.57471 | 27.52554 | 119 ft | 15 kts | 38° |
| 2026-05-08 07:06 | 42.57552 | 27.52644 | 121 ft | 15 kts | 36° |
| 2026-05-08 07:06 | 42.57643 | 27.52640 | 122 ft | 14 kts | 313° |
| 2026-05-08 07:06 | 42.57657 | 27.52568 | 124 ft | 0 kts | 272° |
| 2026-05-08 07:07 | 42.57660 | 27.52481 | 122 ft | 24 kts | 270° |
| 2026-05-08 07:07 | 42.57571 | 27.52260 | 121 ft | 46 kts | 224° |
| 2026-05-08 07:07 | 42.57140 | 27.51690 | 111 ft | 124 kts | 224° |
| 2026-05-08 07:08 | 42.56360 | 27.50656 | 176 ft | 184 kts | 225° |
| 2026-05-08 07:08 | 42.55427 | 27.49433 | 1180 ft | 180 kts | 230° |
| 2026-05-08 07:08 | 42.55034 | 27.47895 | 2241 ft | 182 kts | 275° |
| 2026-05-08 07:08 | 42.55622 | 27.46278 | 2606 ft | 209 kts | 320° |
| 2026-05-08 07:09 | 42.56997 | 27.45405 | 2847 ft | 231 kts | 341° |
| 2026-05-08 07:09 | 42.58533 | 27.44607 | 3298 ft | 241 kts | 336° |
| 2026-05-08 07:09 | 42.60069 | 27.43648 | 3849 ft | 245 kts | 333° |
| 2026-05-08 07:09 | 42.61612 | 27.42601 | 4419 ft | 250 kts | 332° |
| 2026-05-08 07:10 | 42.63189 | 27.41491 | 4822 ft | 264 kts | 332° |
| 2026-05-08 07:10 | 42.64947 | 27.40659 | 5295 ft | 278 kts | 347° |
| 2026-05-08 07:10 | 42.66888 | 27.40191 | 5921 ft | 281 kts | 350° |
| 2026-05-08 07:10 | 42.68789 | 27.39771 | 5970 ft | 280 kts | 350° |
| 2026-05-08 07:11 | 42.70716 | 27.39334 | 6003 ft | 282 kts | 349° |
| 2026-05-08 07:11 | 42.72666 | 27.38874 | 6432 ft | 287 kts | 349° |
| 2026-05-08 07:11 | 42.74630 | 27.38395 | 7329 ft | 285 kts | 348° |
| 2026-05-08 07:11 | 42.76576 | 27.37917 | 8183 ft | 285 kts | 350° |
| 2026-05-08 07:12 | 42.78568 | 27.37931 | 8951 ft | 290 kts | 9° |
| 2026-05-08 07:12 | 42.80552 | 27.38488 | 9763 ft | 293 kts | 11° |
| 2026-05-08 07:12 | 42.82556 | 27.39086 | 10398 ft | 301 kts | 11° |
| 2026-05-08 07:12 | 42.84688 | 27.39715 | 10576 ft | 326 kts | 11° |
| 2026-05-08 07:13 | 42.86980 | 27.40378 | 10773 ft | 347 kts | 10° |
| 2026-05-08 07:13 | 42.89386 | 27.41066 | 11252 ft | 357 kts | 10° |
| 2026-05-08 07:13 | 42.91832 | 27.41758 | 11970 ft | 360 kts | 10° |
| 2026-05-08 07:13 | 42.94288 | 27.42448 | 12745 ft | 361 kts | 10° |
| 2026-05-08 07:14 | 42.96765 | 27.43144 | 13461 ft | 364 kts | 9° |
| 2026-05-08 07:14 | 42.99277 | 27.43722 | 14117 ft | 366 kts | 0° |
| 2026-05-08 07:14 | 43.01812 | 27.43431 | 14732 ft | 368 kts | 349° |
| 2026-05-08 07:14 | 43.04350 | 27.42880 | 15352 ft | 371 kts | 349° |
| 2026-05-08 07:15 | 43.06916 | 27.42304 | 15960 ft | 375 kts | 349° |
| 2026-05-08 07:15 | 43.09506 | 27.41736 | 16541 ft | 379 kts | 349° |
| 2026-05-08 07:15 | 43.12136 | 27.41177 | 17127 ft | 383 kts | 349° |
| 2026-05-08 07:15 | 43.14785 | 27.40628 | 17722 ft | 388 kts | 349° |
| 2026-05-08 07:16 | 43.17470 | 27.40080 | 18290 ft | 392 kts | 349° |
| 2026-05-08 07:16 | 43.20180 | 27.39530 | 18797 ft | 395 kts | 349° |
| 2026-05-08 07:16 | 43.22908 | 27.38977 | 19315 ft | 398 kts | 349° |
| 2026-05-08 07:16 | 43.25662 | 27.38417 | 19828 ft | 401 kts | 349° |
| 2026-05-08 07:17 | 43.28401 | 27.37859 | 20308 ft | 404 kts | 349° |
| 2026-05-08 07:17 | 43.31194 | 27.37298 | 20818 ft | 407 kts | 349° |
| 2026-05-08 07:17 | 43.34014 | 27.36736 | 21312 ft | 410 kts | 349° |
| 2026-05-08 07:17 | 43.36851 | 27.36173 | 21786 ft | 414 kts | 349° |
| 2026-05-08 07:18 | 43.39717 | 27.35605 | 22259 ft | 417 kts | 349° |
| 2026-05-08 07:18 | 43.42593 | 27.35032 | 22734 ft | 419 kts | 349° |
| 2026-05-08 07:18 | 43.45494 | 27.34453 | 23182 ft | 423 kts | 349° |
| 2026-05-08 07:18 | 43.48414 | 27.33869 | 23628 ft | 426 kts | 349° |
| 2026-05-08 07:19 | 43.51362 | 27.33280 | 24000 ft | 428 kts | 349° |
| 2026-05-08 07:19 | 43.54317 | 27.32688 | 24421 ft | 430 kts | 349° |
| 2026-05-08 07:19 | 43.57282 | 27.32094 | 24839 ft | 431 kts | 349° |
| 2026-05-08 07:19 | 43.60259 | 27.31497 | 25231 ft | 433 kts | 349° |
| 2026-05-08 07:20 | 43.63244 | 27.30894 | 25607 ft | 434 kts | 348° |
| 2026-05-08 07:20 | 43.66167 | 27.29887 | 25960 ft | 432 kts | 337° |
| 2026-05-08 07:20 | 43.68905 | 27.28196 | 26334 ft | 430 kts | 328° |
| 2026-05-08 07:20 | 43.71393 | 27.25928 | 26700 ft | 428 kts | 319° |
| 2026-05-08 07:21 | 43.73681 | 27.23295 | 27072 ft | 429 kts | 317° |
| 2026-05-08 07:21 | 43.75949 | 27.20602 | 27408 ft | 431 kts | 317° |
| 2026-05-08 07:21 | 43.78194 | 27.17925 | 27775 ft | 432 kts | 317° |
| 2026-05-08 07:21 | 43.80511 | 27.15177 | 28116 ft | 434 kts | 317° |
| 2026-05-08 07:22 | 43.82811 | 27.12468 | 28486 ft | 436 kts | 317° |
| 2026-05-08 07:22 | 43.85130 | 27.09751 | 28807 ft | 437 kts | 317° |
| 2026-05-08 07:22 | 43.87429 | 27.07065 | 29131 ft | 438 kts | 317° |
| 2026-05-08 07:22 | 43.89764 | 27.04338 | 29438 ft | 440 kts | 317° |
| 2026-05-08 07:23 | 43.92115 | 27.01591 | 29766 ft | 441 kts | 317° |
| 2026-05-08 07:23 | 43.94464 | 26.98844 | 30150 ft | 440 kts | 317° |
| 2026-05-08 07:23 | 43.96793 | 26.96115 | 30570 ft | 437 kts | 317° |
| 2026-05-08 07:23 | 43.99107 | 26.93401 | 30982 ft | 434 kts | 317° |
| 2026-05-08 07:24 | 44.01413 | 26.90692 | 31349 ft | 432 kts | 317° |
| 2026-05-08 07:24 | 44.03707 | 26.87995 | 31668 ft | 431 kts | 317° |
| 2026-05-08 07:24 | 44.05962 | 26.85341 | 31986 ft | 430 kts | 317° |
| 2026-05-08 07:24 | 44.08242 | 26.82655 | 32359 ft | 428 kts | 317° |
| 2026-05-08 07:25 | 44.10541 | 26.80036 | 32715 ft | 427 kts | 319° |
| 2026-05-08 07:25 | 44.12871 | 26.77498 | 33047 ft | 425 kts | 319° |
| 2026-05-08 07:25 | 44.17560 | 26.72484 | 33712 ft | 423 kts | 319° |
| 2026-05-08 07:26 | 44.19884 | 26.69993 | 34042 ft | 421 kts | 319° |
| 2026-05-08 07:26 | 44.22194 | 26.67504 | 34308 ft | 420 kts | 319° |
| 2026-05-08 07:26 | 44.24503 | 26.65003 | 34481 ft | 421 kts | 319° |
| 2026-05-08 07:26 | 44.26816 | 26.62489 | 34641 ft | 422 kts | 319° |
| 2026-05-08 07:27 | 44.29130 | 26.59966 | 34851 ft | 422 kts | 319° |
| 2026-05-08 07:27 | 44.31441 | 26.57443 | 35075 ft | 421 kts | 319° |
| 2026-05-08 07:27 | 44.33749 | 26.54919 | 35247 ft | 422 kts | 319° |
| 2026-05-08 07:27 | 44.35279 | 26.53244 | 35350 ft | 423 kts | 319° |
| 2026-05-08 07:28 | 44.37602 | 26.50699 | 35513 ft | 424 kts | 318° |
| 2026-05-08 07:28 | 44.39920 | 26.48157 | 35714 ft | 423 kts | 318° |
| 2026-05-08 07:28 | 44.42237 | 26.45615 | 35910 ft | 423 kts | 318° |
| 2026-05-08 07:28 | 44.44559 | 26.43064 | 36051 ft | 424 kts | 318° |
| 2026-05-08 07:29 | 44.46886 | 26.40503 | 36057 ft | 427 kts | 318° |
| 2026-05-08 07:29 | 44.51553 | 26.35364 | 36071 ft | 425 kts | 318° |
| 2026-05-08 07:30 | 44.56181 | 26.30257 | 36068 ft | 422 kts | 318° |
| 2026-05-08 07:30 | 44.60781 | 26.25170 | 36074 ft | 420 kts | 318° |
| 2026-05-08 07:31 | 44.65358 | 26.20097 | 36075 ft | 418 kts | 318° |
| 2026-05-08 07:31 | 44.69893 | 26.15059 | 36082 ft | 419 kts | 318° |
| 2026-05-08 07:32 | 44.74464 | 26.09970 | 36077 ft | 420 kts | 318° |
| 2026-05-08 07:32 | 44.79054 | 26.04850 | 36080 ft | 422 kts | 318° |
| 2026-05-08 07:33 | 44.83182 | 26.00235 | 36078 ft | 424 kts | 318° |
| 2026-05-08 07:33 | 44.87818 | 25.95045 | 36071 ft | 426 kts | 318° |
| 2026-05-08 07:34 | 44.92466 | 25.89829 | 36065 ft | 428 kts | 318° |
| 2026-05-08 07:34 | 44.97130 | 25.84584 | 36067 ft | 430 kts | 317° |
| 2026-05-08 07:35 | 45.01787 | 25.79336 | 36065 ft | 431 kts | 317° |
| 2026-05-08 07:35 | 45.06474 | 25.74045 | 36066 ft | 431 kts | 317° |
| 2026-05-08 07:36 | 45.11159 | 25.68742 | 36058 ft | 431 kts | 317° |
| 2026-05-08 07:36 | 45.15845 | 25.63427 | 36064 ft | 431 kts | 317° |
| 2026-05-08 07:37 | 45.20513 | 25.58123 | 36057 ft | 430 kts | 317° |
| 2026-05-08 07:37 | 45.25176 | 25.52811 | 36058 ft | 428 kts | 317° |
| 2026-05-08 07:38 | 45.29774 | 25.47561 | 36045 ft | 426 kts | 317° |
| 2026-05-08 07:38 | 45.34377 | 25.42296 | 36065 ft | 423 kts | 317° |
| 2026-05-08 07:39 | 45.38966 | 25.37034 | 36068 ft | 423 kts | 317° |
| 2026-05-08 07:39 | 45.43536 | 25.31782 | 36061 ft | 422 kts | 317° |
| 2026-05-08 07:40 | 45.48111 | 25.26513 | 36062 ft | 423 kts | 317° |
| 2026-05-08 07:40 | 45.52689 | 25.21231 | 36055 ft | 423 kts | 317° |
| 2026-05-08 07:41 | 45.57275 | 25.15925 | 36068 ft | 425 kts | 317° |
| 2026-05-08 07:41 | 45.61886 | 25.10580 | 36074 ft | 428 kts | 317° |
| 2026-05-08 07:42 | 45.66520 | 25.05197 | 36073 ft | 431 kts | 317° |
| 2026-05-08 07:42 | 45.70584 | 25.00468 | 36069 ft | 431 kts | 316° |
| 2026-05-08 07:43 | 45.75255 | 24.95021 | 36063 ft | 432 kts | 316° |
| 2026-05-08 07:43 | 45.79912 | 24.89578 | 36062 ft | 432 kts | 316° |
| 2026-05-08 07:44 | 45.84557 | 24.84136 | 36060 ft | 431 kts | 316° |
| 2026-05-08 07:44 | 45.89193 | 24.78693 | 36052 ft | 430 kts | 316° |
| 2026-05-08 07:45 | 45.93809 | 24.73263 | 36059 ft | 428 kts | 316° |
| 2026-05-08 07:45 | 45.98414 | 24.67832 | 36048 ft | 427 kts | 316° |
| 2026-05-08 07:46 | 46.03000 | 24.62411 | 36053 ft | 426 kts | 316° |
| 2026-05-08 07:46 | 46.07570 | 24.56997 | 36056 ft | 425 kts | 316° |
| 2026-05-08 07:47 | 46.12132 | 24.51579 | 36058 ft | 425 kts | 316° |
| 2026-05-08 07:47 | 46.16690 | 24.46155 | 36062 ft | 425 kts | 316° |
| 2026-05-08 07:48 | 46.21260 | 24.40705 | 36066 ft | 426 kts | 316° |
| 2026-05-08 07:48 | 46.25830 | 24.35243 | 36072 ft | 427 kts | 316° |
| 2026-05-08 07:49 | 46.30413 | 24.29752 | 36073 ft | 428 kts | 316° |
| 2026-05-08 07:49 | 46.35002 | 24.24242 | 36085 ft | 429 kts | 316° |
| 2026-05-08 07:50 | 46.39600 | 24.18709 | 36070 ft | 430 kts | 315° |
| 2026-05-08 07:50 | 46.44203 | 24.13158 | 36072 ft | 431 kts | 315° |
| 2026-05-08 07:51 | 46.48811 | 24.07588 | 36066 ft | 432 kts | 315° |
| 2026-05-08 07:51 | 46.53429 | 24.01994 | 36057 ft | 432 kts | 315° |
| 2026-05-08 07:52 | 46.58049 | 23.96384 | 36061 ft | 433 kts | 315° |
| 2026-05-08 07:52 | 46.62639 | 23.90797 | 36070 ft | 433 kts | 315° |
| 2026-05-08 07:53 | 46.67261 | 23.85158 | 36077 ft | 433 kts | 315° |
| 2026-05-08 07:53 | 46.71875 | 23.79518 | 36078 ft | 433 kts | 315° |
| 2026-05-08 07:54 | 46.76490 | 23.73861 | 36079 ft | 432 kts | 315° |
| 2026-05-08 07:54 | 46.81093 | 23.68207 | 36080 ft | 432 kts | 315° |
| 2026-05-08 07:55 | 46.85689 | 23.62548 | 36078 ft | 432 kts | 315° |
| 2026-05-08 07:55 | 46.90249 | 23.56920 | 36076 ft | 431 kts | 315° |
| 2026-05-08 07:56 | 46.94825 | 23.51259 | 36076 ft | 431 kts | 315° |
| 2026-05-08 07:56 | 46.99405 | 23.45581 | 36082 ft | 431 kts | 315° |
| 2026-05-08 07:57 | 47.03979 | 23.39897 | 36071 ft | 431 kts | 315° |
| 2026-05-08 07:57 | 47.08555 | 23.34196 | 36070 ft | 431 kts | 314° |
| 2026-05-08 07:58 | 47.13127 | 23.28488 | 36071 ft | 432 kts | 314° |
| 2026-05-08 07:58 | 47.17705 | 23.22758 | 36079 ft | 432 kts | 314° |
| 2026-05-08 07:59 | 47.22278 | 23.17022 | 36077 ft | 432 kts | 314° |
| 2026-05-08 07:59 | 47.26847 | 23.11277 | 36076 ft | 432 kts | 314° |
| 2026-05-08 08:00 | 47.31418 | 23.05516 | 36075 ft | 432 kts | 314° |
| 2026-05-08 08:00 | 47.35997 | 22.99731 | 36085 ft | 433 kts | 314° |
| 2026-05-08 08:01 | 47.40542 | 22.93975 | 36073 ft | 433 kts | 314° |
| 2026-05-08 08:01 | 47.45115 | 22.88171 | 36077 ft | 433 kts | 314° |
| 2026-05-08 08:02 | 47.49689 | 22.82350 | 36081 ft | 434 kts | 314° |
| 2026-05-08 08:02 | 47.54269 | 22.76509 | 36073 ft | 434 kts | 314° |
| 2026-05-08 08:03 | 47.58844 | 22.70660 | 36075 ft | 434 kts | 314° |
| 2026-05-08 08:03 | 47.63380 | 22.64847 | 36078 ft | 434 kts | 314° |
| 2026-05-08 08:04 | 47.67954 | 22.58971 | 36075 ft | 434 kts | 314° |
| 2026-05-08 08:04 | 47.72522 | 22.53087 | 36073 ft | 435 kts | 314° |
| 2026-05-08 08:05 | 47.77087 | 22.47195 | 36071 ft | 435 kts | 314° |
| 2026-05-08 08:05 | 47.81944 | 22.41741 | 36080 ft | 441 kts | 323° |
| 2026-05-08 08:06 | 47.87236 | 22.37051 | 36068 ft | 443 kts | 324° |
| 2026-05-08 08:06 | 47.92546 | 22.32372 | 36071 ft | 444 kts | 324° |
| 2026-05-08 08:07 | 47.97844 | 22.27631 | 36063 ft | 444 kts | 324° |
| 2026-05-08 08:07 | 48.03144 | 22.22844 | 36064 ft | 445 kts | 324° |
| 2026-05-08 08:08 | 48.08451 | 22.18033 | 36062 ft | 446 kts | 324° |
| 2026-05-08 08:08 | 48.13758 | 22.13212 | 36065 ft | 447 kts | 324° |
| 2026-05-08 08:09 | 48.19079 | 22.08369 | 36055 ft | 448 kts | 324° |
| 2026-05-08 08:09 | 48.24401 | 22.03512 | 36058 ft | 448 kts | 324° |
| 2026-05-08 08:10 | 48.28829 | 21.99462 | 36053 ft | 449 kts | 324° |
| 2026-05-08 08:10 | 48.34169 | 21.94569 | 36058 ft | 449 kts | 324° |
| 2026-05-08 08:11 | 48.39500 | 21.89668 | 36052 ft | 449 kts | 324° |
| 2026-05-08 08:11 | 48.44833 | 21.84749 | 36049 ft | 449 kts | 323° |
| 2026-05-08 08:12 | 48.50162 | 21.79820 | 36056 ft | 449 kts | 323° |
| 2026-05-08 08:12 | 48.55489 | 21.74881 | 36047 ft | 450 kts | 323° |
| 2026-05-08 08:13 | 48.60825 | 21.69922 | 36058 ft | 450 kts | 323° |
| 2026-05-08 08:13 | 48.66152 | 21.64958 | 36051 ft | 449 kts | 323° |
| 2026-05-08 08:14 | 48.71433 | 21.60024 | 36059 ft | 449 kts | 323° |
| 2026-05-08 08:14 | 48.76751 | 21.55043 | 36062 ft | 450 kts | 323° |
| 2026-05-08 08:15 | 48.82072 | 21.50048 | 36059 ft | 450 kts | 323° |
| 2026-05-08 08:15 | 48.87406 | 21.45026 | 36054 ft | 451 kts | 323° |
| 2026-05-08 08:16 | 48.92731 | 21.40002 | 36059 ft | 450 kts | 323° |
| 2026-05-08 08:16 | 48.98033 | 21.34986 | 36068 ft | 450 kts | 323° |
| 2026-05-08 08:17 | 49.03347 | 21.29946 | 36059 ft | 450 kts | 323° |
| 2026-05-08 08:17 | 49.08661 | 21.24893 | 36056 ft | 449 kts | 323° |
| 2026-05-08 08:18 | 49.13959 | 21.19842 | 36069 ft | 449 kts | 323° |
| 2026-05-08 08:18 | 49.19260 | 21.14774 | 36067 ft | 449 kts | 323° |
| 2026-05-08 08:19 | 49.24558 | 21.09697 | 36073 ft | 449 kts | 323° |
| 2026-05-08 08:19 | 49.29859 | 21.04606 | 36064 ft | 450 kts | 323° |
| 2026-05-08 08:20 | 49.34769 | 20.98922 | 36072 ft | 441 kts | 309° |
| 2026-05-08 08:20 | 49.38667 | 20.91730 | 36079 ft | 438 kts | 304° |
| 2026-05-08 08:21 | 49.42465 | 20.84404 | 36079 ft | 439 kts | 304° |
| 2026-05-08 08:21 | 49.46297 | 20.77063 | 36079 ft | 440 kts | 305° |
| 2026-05-08 08:22 | 49.50148 | 20.69728 | 36089 ft | 441 kts | 305° |
| 2026-05-08 08:22 | 49.54014 | 20.62371 | 36074 ft | 442 kts | 305° |
| 2026-05-08 08:23 | 49.57872 | 20.55011 | 36076 ft | 442 kts | 305° |
| 2026-05-08 08:23 | 49.61348 | 20.48359 | 36084 ft | 442 kts | 305° |
| 2026-05-08 08:24 | 49.65201 | 20.40965 | 36083 ft | 441 kts | 305° |
| 2026-05-08 08:24 | 49.69017 | 20.33624 | 36090 ft | 441 kts | 305° |
| 2026-05-08 08:25 | 49.72856 | 20.26215 | 36090 ft | 441 kts | 305° |
| 2026-05-08 08:25 | 49.76685 | 20.18806 | 36092 ft | 441 kts | 305° |
| 2026-05-08 08:26 | 49.80390 | 20.11616 | 36095 ft | 441 kts | 305° |
| 2026-05-08 08:26 | 49.84205 | 20.04192 | 36077 ft | 441 kts | 305° |
| 2026-05-08 08:27 | 49.88021 | 19.96746 | 36086 ft | 441 kts | 305° |
| 2026-05-08 08:27 | 49.91832 | 19.89286 | 36082 ft | 441 kts | 305° |
| 2026-05-08 08:28 | 49.95641 | 19.81812 | 36081 ft | 442 kts | 305° |
| 2026-05-08 08:28 | 49.99074 | 19.75056 | 36093 ft | 442 kts | 305° |
| 2026-05-08 08:29 | 50.02887 | 19.67531 | 36082 ft | 442 kts | 305° |
| 2026-05-08 08:29 | 50.06690 | 19.60006 | 36080 ft | 442 kts | 305° |
| 2026-05-08 08:30 | 50.10460 | 19.52525 | 36082 ft | 441 kts | 305° |
| 2026-05-08 08:30 | 50.16138 | 19.41216 | 36085 ft | 441 kts | 304° |
| 2026-05-08 08:31 | 50.19904 | 19.33689 | 36086 ft | 440 kts | 304° |
| 2026-05-08 08:31 | 50.23030 | 19.27424 | 36095 ft | 439 kts | 304° |
| 2026-05-08 08:32 | 50.25253 | 19.22960 | 36100 ft | 439 kts | 304° |
| 2026-05-08 08:32 | 50.28996 | 19.15425 | 36102 ft | 439 kts | 304° |
| 2026-05-08 08:33 | 50.32738 | 19.07872 | 36101 ft | 439 kts | 304° |
| 2026-05-08 08:33 | 50.36452 | 19.00354 | 36105 ft | 439 kts | 304° |
| 2026-05-08 08:34 | 50.40182 | 18.92781 | 36103 ft | 440 kts | 304° |
| 2026-05-08 08:34 | 50.43744 | 18.85528 | 36110 ft | 440 kts | 304° |
| 2026-05-08 08:35 | 50.47476 | 18.77908 | 36106 ft | 440 kts | 304° |
| 2026-05-08 08:35 | 50.51203 | 18.70275 | 36112 ft | 440 kts | 304° |
| 2026-05-08 08:36 | 50.54925 | 18.62632 | 36106 ft | 440 kts | 304° |
| 2026-05-08 08:36 | 50.58645 | 18.54968 | 36123 ft | 440 kts | 304° |
| 2026-05-08 08:37 | 50.62359 | 18.47296 | 36119 ft | 440 kts | 304° |
| 2026-05-08 08:37 | 50.66067 | 18.39591 | 35822 ft | 446 kts | 304° |
| 2026-05-08 08:38 | 50.67881 | 18.35641 | 35453 ft | 442 kts | 303° |
| 2026-05-08 08:38 | 50.69255 | 18.32594 | 35087 ft | 440 kts | 303° |
| 2026-05-08 08:38 | 50.71018 | 18.28681 | 34671 ft | 436 kts | 303° |
| 2026-05-08 08:38 | 50.72778 | 18.24794 | 34245 ft | 433 kts | 303° |
| 2026-05-08 08:39 | 50.74538 | 18.20961 | 33800 ft | 429 kts | 304° |
| 2026-05-08 08:39 | 50.76326 | 18.17212 | 33382 ft | 424 kts | 305° |
| 2026-05-08 08:39 | 50.78111 | 18.13532 | 32980 ft | 419 kts | 305° |
| 2026-05-08 08:39 | 50.79881 | 18.09892 | 32535 ft | 415 kts | 305° |
| 2026-05-08 08:40 | 50.81628 | 18.06288 | 32144 ft | 410 kts | 305° |
| 2026-05-08 08:40 | 50.83354 | 18.02710 | 31723 ft | 407 kts | 305° |
| 2026-05-08 08:40 | 50.85053 | 17.99171 | 31330 ft | 402 kts | 305° |
| 2026-05-08 08:40 | 50.86736 | 17.95658 | 30928 ft | 399 kts | 305° |
| 2026-05-08 08:41 | 50.88405 | 17.92163 | 30537 ft | 395 kts | 305° |
| 2026-05-08 08:41 | 50.90050 | 17.88713 | 30139 ft | 391 kts | 305° |
| 2026-05-08 08:41 | 50.91658 | 17.85336 | 29706 ft | 387 kts | 306° |
| 2026-05-08 08:41 | 50.93287 | 17.81911 | 29290 ft | 381 kts | 306° |
| 2026-05-08 08:42 | 50.94869 | 17.78580 | 28901 ft | 376 kts | 305° |
| 2026-05-08 08:42 | 50.96433 | 17.75284 | 28506 ft | 372 kts | 305° |
| 2026-05-08 08:42 | 50.97975 | 17.72028 | 28120 ft | 367 kts | 305° |
| 2026-05-08 08:42 | 50.99500 | 17.68805 | 27727 ft | 363 kts | 305° |
| 2026-05-08 08:43 | 51.01008 | 17.65615 | 27351 ft | 359 kts | 305° |
| 2026-05-08 08:43 | 51.02502 | 17.62450 | 26955 ft | 356 kts | 305° |
| 2026-05-08 08:43 | 51.03955 | 17.59368 | 26592 ft | 352 kts | 305° |
| 2026-05-08 08:43 | 51.05419 | 17.56259 | 26220 ft | 349 kts | 305° |
| 2026-05-08 08:44 | 51.06866 | 17.53182 | 25848 ft | 347 kts | 305° |
| 2026-05-08 08:44 | 51.08306 | 17.50116 | 25484 ft | 344 kts | 305° |
| 2026-05-08 08:44 | 51.09731 | 17.47077 | 25125 ft | 341 kts | 305° |
| 2026-05-08 08:44 | 51.11143 | 17.44066 | 24763 ft | 339 kts | 305° |
| 2026-05-08 08:45 | 51.12550 | 17.41063 | 24407 ft | 337 kts | 305° |
| 2026-05-08 08:45 | 51.13947 | 17.38075 | 24060 ft | 335 kts | 305° |
| 2026-05-08 08:45 | 51.15398 | 17.35192 | 23685 ft | 335 kts | 313° |
| 2026-05-08 08:45 | 51.17173 | 17.32799 | 23309 ft | 334 kts | 322° |
| 2026-05-08 08:46 | 51.19148 | 17.30932 | 23134 ft | 328 kts | 333° |
| 2026-05-08 08:46 | 51.21266 | 17.29565 | 22836 ft | 327 kts | 336° |
| 2026-05-08 08:46 | 51.23397 | 17.28296 | 22459 ft | 327 kts | 336° |
| 2026-05-08 08:46 | 51.25539 | 17.27036 | 22135 ft | 331 kts | 336° |
| 2026-05-08 08:47 | 51.27734 | 17.25733 | 21775 ft | 341 kts | 336° |
| 2026-05-08 08:47 | 51.29946 | 17.24407 | 21399 ft | 344 kts | 336° |
| 2026-05-08 08:47 | 51.32178 | 17.23060 | 21024 ft | 341 kts | 336° |
| 2026-05-08 08:47 | 51.34392 | 17.21717 | 20658 ft | 339 kts | 336° |
| 2026-05-08 08:48 | 51.36587 | 17.20379 | 20301 ft | 337 kts | 336° |
| 2026-05-08 08:48 | 51.38768 | 17.19046 | 19944 ft | 335 kts | 336° |
| 2026-05-08 08:48 | 51.40941 | 17.17717 | 19582 ft | 333 kts | 336° |
| 2026-05-08 08:48 | 51.43099 | 17.16395 | 19227 ft | 331 kts | 336° |
| 2026-05-08 08:49 | 51.45248 | 17.15076 | 18875 ft | 330 kts | 336° |
| 2026-05-08 08:49 | 51.47392 | 17.13762 | 18526 ft | 329 kts | 337° |
| 2026-05-08 08:49 | 51.49604 | 17.12823 | 18129 ft | 330 kts | 348° |
| 2026-05-08 08:49 | 51.51902 | 17.12562 | 17714 ft | 332 kts | 359° |
| 2026-05-08 08:50 | 51.54209 | 17.12769 | 17355 ft | 331 kts | 1° |
| 2026-05-08 08:50 | 51.56499 | 17.13049 | 16977 ft | 330 kts | 2° |
| 2026-05-08 08:50 | 51.58776 | 17.13339 | 16638 ft | 328 kts | 2° |
| 2026-05-08 08:50 | 51.61046 | 17.13621 | 16289 ft | 326 kts | 2° |
| 2026-05-08 08:51 | 51.63303 | 17.13892 | 15942 ft | 324 kts | 2° |
| 2026-05-08 08:51 | 51.65547 | 17.14153 | 15602 ft | 322 kts | 2° |
| 2026-05-08 08:51 | 51.67779 | 17.14409 | 15262 ft | 321 kts | 1° |
| 2026-05-08 08:51 | 51.69996 | 17.14659 | 14930 ft | 319 kts | 2° |
| 2026-05-08 08:52 | 51.72212 | 17.14908 | 14591 ft | 318 kts | 2° |
| 2026-05-08 08:52 | 51.74412 | 17.15154 | 14258 ft | 317 kts | 2° |
| 2026-05-08 08:52 | 51.76609 | 17.15400 | 13918 ft | 316 kts | 2° |
| 2026-05-08 08:52 | 51.78801 | 17.15645 | 13539 ft | 315 kts | 2° |
| 2026-05-08 08:53 | 51.80983 | 17.15890 | 13187 ft | 314 kts | 2° |
| 2026-05-08 08:53 | 51.83155 | 17.16134 | 12840 ft | 312 kts | 2° |
| 2026-05-08 08:53 | 51.85313 | 17.16376 | 12505 ft | 310 kts | 2° |
| 2026-05-08 08:53 | 51.87432 | 17.16614 | 12176 ft | 308 kts | 2° |
| 2026-05-08 08:54 | 51.89567 | 17.16854 | 11846 ft | 306 kts | 2° |
| 2026-05-08 08:54 | 51.91684 | 17.17092 | 11548 ft | 304 kts | 2° |
| 2026-05-08 08:54 | 51.93762 | 17.17327 | 11444 ft | 295 kts | 2° |
| 2026-05-08 08:54 | 51.95791 | 17.17521 | 11220 ft | 290 kts | 359° |
| 2026-05-08 08:55 | 51.97808 | 17.17416 | 10929 ft | 288 kts | 355° |
| 2026-05-08 08:55 | 51.99803 | 17.17193 | 10638 ft | 287 kts | 354° |
| 2026-05-08 08:55 | 52.01786 | 17.16963 | 10379 ft | 284 kts | 354° |
| 2026-05-08 08:55 | 52.03732 | 17.16749 | 10259 ft | 276 kts | 354° |
| 2026-05-08 08:56 | 52.05631 | 17.16553 | 10055 ft | 273 kts | 354° |
| 2026-05-08 08:56 | 52.07523 | 17.16365 | 9753 ft | 272 kts | 355° |
| 2026-05-08 08:56 | 52.09406 | 17.16184 | 9528 ft | 269 kts | 355° |
| 2026-05-08 08:56 | 52.10628 | 17.16069 | 9461 ft | 263 kts | 355° |
| 2026-05-08 08:57 | 52.12436 | 17.15899 | 9338 ft | 257 kts | 355° |
| 2026-05-08 08:57 | 52.14197 | 17.15734 | 9221 ft | 250 kts | 355° |
| 2026-05-08 08:57 | 52.15910 | 17.15733 | 9050 ft | 247 kts | 9° |
| 2026-05-08 08:57 | 52.17562 | 17.16478 | 8881 ft | 247 kts | 17° |
| 2026-05-08 08:58 | 52.19197 | 17.17386 | 8629 ft | 249 kts | 17° |
| 2026-05-08 08:58 | 52.20842 | 17.18292 | 8393 ft | 249 kts | 17° |
| 2026-05-08 08:58 | 52.22464 | 17.19241 | 8157 ft | 248 kts | 26° |
| 2026-05-08 08:58 | 52.23731 | 17.21103 | 7908 ft | 248 kts | 58° |
| 2026-05-08 08:59 | 52.24236 | 17.23755 | 7678 ft | 246 kts | 89° |
| 2026-05-08 08:59 | 52.23985 | 17.26489 | 7480 ft | 243 kts | 105° |
| 2026-05-08 08:59 | 52.23485 | 17.29113 | 7235 ft | 242 kts | 105° |
| 2026-05-08 08:59 | 52.23450 | 17.31799 | 6966 ft | 238 kts | 70° |
| 2026-05-08 09:00 | 52.24338 | 17.34026 | 6652 ft | 235 kts | 37° |
| 2026-05-08 09:00 | 52.25726 | 17.35280 | 6400 ft | 224 kts | 19° |
| 2026-05-08 09:00 | 52.27142 | 17.36050 | 6183 ft | 210 kts | 16° |
| 2026-05-08 09:00 | 52.28492 | 17.36737 | 5974 ft | 197 kts | 16° |
| 2026-05-08 09:01 | 52.29784 | 17.37205 | 5763 ft | 184 kts | 356° |
| 2026-05-08 09:01 | 52.30894 | 17.36415 | 5619 ft | 177 kts | 310° |
| 2026-05-08 09:01 | 52.31490 | 17.34635 | 5521 ft | 183 kts | 299° |
| 2026-05-08 09:01 | 52.32081 | 17.32747 | 5303 ft | 188 kts | 298° |
| 2026-05-08 09:02 | 52.32660 | 17.30825 | 5121 ft | 188 kts | 297° |
| 2026-05-08 09:02 | 52.33182 | 17.28854 | 4938 ft | 189 kts | 294° |
| 2026-05-08 09:02 | 52.33632 | 17.26840 | 4742 ft | 189 kts | 291° |
| 2026-05-08 09:02 | 52.34044 | 17.24807 | 4562 ft | 188 kts | 290° |
| 2026-05-08 09:03 | 52.34440 | 17.22770 | 4375 ft | 187 kts | 290° |
| 2026-05-08 09:03 | 52.34828 | 17.20739 | 4214 ft | 188 kts | 290° |
| 2026-05-08 09:03 | 52.35218 | 17.18688 | 4041 ft | 189 kts | 290° |
| 2026-05-08 09:03 | 52.35606 | 17.16633 | 3856 ft | 190 kts | 290° |
| 2026-05-08 09:04 | 52.35998 | 17.14566 | 3680 ft | 190 kts | 289° |
| 2026-05-08 09:04 | 52.36387 | 17.12520 | 3490 ft | 187 kts | 290° |
| 2026-05-08 09:04 | 52.36766 | 17.10510 | 3302 ft | 182 kts | 290° |
| 2026-05-08 09:04 | 52.37127 | 17.08611 | 3211 ft | 166 kts | 290° |
| 2026-05-08 09:05 | 52.37461 | 17.06858 | 3042 ft | 157 kts | 291° |
| 2026-05-08 09:05 | 52.37784 | 17.05163 | 2869 ft | 156 kts | 290° |
| 2026-05-08 09:05 | 52.38103 | 17.03491 | 2803 ft | 153 kts | 291° |
| 2026-05-08 09:05 | 52.38418 | 17.01843 | 2598 ft | 150 kts | 291° |
| 2026-05-08 09:06 | 52.38727 | 17.00223 | 2398 ft | 147 kts | 290° |
| 2026-05-08 09:06 | 52.39030 | 16.98636 | 2209 ft | 146 kts | 290° |
| 2026-05-08 09:06 | 52.39331 | 16.97062 | 1995 ft | 146 kts | 291° |
| 2026-05-08 09:06 | 52.39630 | 16.95497 | 1795 ft | 143 kts | 291° |
| 2026-05-08 09:07 | 52.39928 | 16.93945 | 1576 ft | 142 kts | 291° |
| 2026-05-08 09:07 | 52.40225 | 16.92401 | 1401 ft | 143 kts | 290° |
| 2026-05-08 09:07 | 52.40520 | 16.90857 | 1186 ft | 140 kts | 290° |
| 2026-05-08 09:07 | 52.40812 | 16.89337 | 995 ft | 140 kts | 291° |
| 2026-05-08 09:08 | 52.41109 | 16.87792 | 791 ft | 143 kts | 290° |
| 2026-05-08 09:08 | 52.41407 | 16.86241 | 610 ft | 144 kts | 290° |
| 2026-05-08 09:08 | 52.41707 | 16.84681 | 424 ft | 143 kts | 290° |
| 2026-05-08 09:08 | 52.42003 | 16.83164 | 302 ft | 115 kts | 287° |
| 2026-05-08 09:09 | 52.42130 | 16.82514 | 305 ft | 47 kts | 288° |
| 2026-05-08 09:09 | 52.42221 | 16.82036 | 310 ft | 42 kts | 287° |
| 2026-05-08 09:09 | 52.42297 | 16.81617 | 310 ft | 34 kts | 279° |
| 2026-05-08 09:09 | 52.42292 | 16.81336 | 311 ft | 21 kts | 259° |
| 2026-05-08 09:10 | 52.42239 | 16.81164 | 312 ft | 11 kts | 182° |
| 2026-05-08 09:10 | 52.42202 | 16.81232 | 312 ft | 9 kts | 109° |
| 2026-05-08 09:10 | 52.42185 | 16.81325 | 310 ft | 9 kts | 107° |
| 2026-05-08 09:10 | 52.42165 | 16.81433 | 311 ft | 11 kts | 108° |
| 2026-05-08 09:11 | 52.42140 | 16.81561 | 310 ft | 13 kts | 107° |
| 2026-05-08 09:11 | 52.42112 | 16.81708 | 309 ft | 14 kts | 107° |
| 2026-05-08 09:11 | 52.42084 | 16.81853 | 310 ft | 13 kts | 107° |
| 2026-05-08 09:11 | 52.42056 | 16.81998 | 310 ft | 14 kts | 107° |
| 2026-05-08 09:12 | 52.42025 | 16.82157 | 308 ft | 15 kts | 107° |
| 2026-05-08 09:12 | 52.41993 | 16.82325 | 306 ft | 15 kts | 107° |
| 2026-05-08 09:12 | 52.41962 | 16.82487 | 306 ft | 15 kts | 107° |
| 2026-05-08 09:12 | 52.41932 | 16.82642 | 305 ft | 14 kts | 107° |
| 2026-05-08 09:13 | 52.41903 | 16.82791 | 303 ft | 13 kts | 107° |
| 2026-05-08 09:13 | 52.41852 | 16.82900 | 302 ft | 13 kts | 175° |
| 2026-05-08 09:13 | 52.41764 | 16.82871 | 303 ft | 13 kts | 198° |
| 2026-05-08 09:13 | 52.41678 | 16.82867 | 303 ft | 13 kts | 139° |
| 2026-05-08 09:14 | 52.41630 | 16.82929 | 302 ft | 6 kts | 189° |
| 2026-05-08 09:14 | 52.41592 | 16.82914 | 301 ft | 0 kts | 191° |